EIDW

Dublin Airport

Dublin, Ireland
METAR EIDW 190700Z 27005KT 9999 FEW020 BKN060 13/10 Q1020 NOSIG
Observed Flight Rules
Jul-19 @ 07:00 UTC (25 minutes ago) Visual Flight Rules
Wind Visibility Clouds
270° at 5 knots 10,000+ meters
  • Few at 2,000' AGL
  • Broken at 6,000' AGL
Temperatures Readings
Current 13°C / 55°F
Dewpoint 10°C / 50°F
Humidity 82%
Altimeter 30.12" Hg
Pressure 1020 hPa
Elevation 85
METAR EIDW 190700Z 27005KT 9999 FEW020 BKN060 13/10 Q1020 NOSIG
Observed Flight Rules
Jul-19 @ 07:00 UTC
(25 minutes ago)
VFR
Wind Visibility
270° at 5 knots 10,000+ meters
Clouds
  • Few at 2,000' AGL
  • Broken at 6,000' AGL
Temperature Dewpoint
13°C / 55°F 10°C / 50°F
Humidity Altimeter Pressure
82% 30.12" Hg 1020 hPa